createdAt,value
2023-01-22T06:17:03.729Z,101419.58
2023-01-22T06:19:39.056Z,101428.02
2023-01-22T06:22:06.112Z,101422.38
2023-01-22T06:24:45.236Z,101430.36
2023-01-22T06:27:13.117Z,101425.98
2023-01-22T06:29:49.380Z,101425.92
2023-01-22T06:32:16.422Z,101427.84
2023-01-22T06:34:44.192Z,101431.02
2023-01-22T06:37:11.051Z,101436.84
2023-01-22T06:39:38.502Z,101441.85
2023-01-22T06:42:32.469Z,101444.55
2023-01-22T06:44:59.727Z,101444.98
2023-01-22T06:47:28.315Z,101450.75
2023-01-22T06:49:55.372Z,101448.23
2023-01-22T06:52:22.113Z,101447.29
2023-01-22T06:54:48.888Z,101450.91
2023-01-22T06:57:15.808Z,101454.45
2023-01-22T06:59:42.555Z,101456.48
2023-01-22T07:02:15.234Z,101457.21
2023-01-22T07:04:42.003Z,101460.64
2023-01-22T07:07:08.932Z,101457.06
2023-01-22T07:09:37.114Z,101459.42
2023-01-22T07:12:04.176Z,101462.84
2023-01-22T07:14:36.720Z,101469.23
2023-01-22T07:17:04.719Z,101466.31
2023-01-22T07:19:32.179Z,101465.35
2023-01-22T07:21:59.229Z,101467.56
2023-01-22T07:24:26.487Z,101468.96
2023-01-22T07:26:53.335Z,101466.64
2023-01-22T07:29:20.066Z,101468.82
2023-01-22T07:31:49.508Z,101470.67
2023-01-22T07:34:16.651Z,101471.16
2023-01-22T07:36:45.978Z,101470.55
2023-01-22T07:39:13.308Z,101469.19
2023-01-22T07:41:40.157Z,101473.46
2023-01-22T07:44:11.402Z,101475.14
2023-01-22T07:46:42.097Z,101474.94
2023-01-22T07:49:10.319Z,101476.08
2023-01-22T07:51:37.065Z,101480.90
2023-01-22T07:54:04.018Z,101484.45
2023-01-22T07:56:31.475Z,101482.48
2023-01-22T07:59:01.599Z,101486.89
2023-01-22T08:01:28.760Z,101484.22
2023-01-22T08:03:56.787Z,101488.46
2023-01-22T08:06:23.679Z,101488.41
2023-01-22T08:08:50.527Z,101490.84
2023-01-22T08:11:17.581Z,101490.83
2023-01-22T08:13:44.949Z,101495.35
2023-01-22T08:16:11.973Z,101494.42
2023-01-22T08:18:38.942Z,101491.55
2023-01-22T08:21:05.994Z,101495.16
2023-01-22T08:23:33.170Z,101497.75
2023-01-22T08:26:00.716Z,101495.06
2023-01-22T08:28:27.569Z,101493.67
2023-01-22T08:31:01.261Z,101485.80
2023-01-22T08:33:28.831Z,101491.80
2023-01-22T08:35:55.464Z,101489.09
2023-01-22T08:38:22.330Z,101490.60
2023-01-22T08:40:52.650Z,101489.46
2023-01-22T08:43:19.475Z,101492.69
2023-01-22T08:45:49.465Z,101488.35
2023-01-22T08:48:16.991Z,101484.45
2023-01-22T08:50:43.828Z,101480.81
2023-01-22T08:53:10.677Z,101480.29
2023-01-22T08:55:37.633Z,101478.58
2023-01-22T08:58:04.476Z,101477.27
2023-01-22T09:00:31.407Z,101480.17
2023-01-22T09:02:59.609Z,101476.36
2023-01-22T09:05:26.964Z,101480.48
2023-01-22T09:07:53.835Z,101481.52
2023-01-22T09:10:21.851Z,101481.23
2023-01-22T09:12:49.156Z,101476.59
2023-01-22T09:15:16.198Z,101474.51
2023-01-22T09:17:43.053Z,101472.77
2023-01-22T09:20:10.302Z,101472.61
2023-01-22T09:22:37.460Z,101470.33
2023-01-22T09:25:04.930Z,101471.16
2023-01-22T09:27:31.904Z,101468.69
2023-01-22T09:29:59.228Z,101471.91
2023-01-22T09:32:29.867Z,101468.76
2023-01-22T09:34:56.927Z,101467.10
2023-01-22T09:37:24.791Z,101465.17
2023-01-22T09:39:51.846Z,101466.20
2023-01-22T09:42:39.878Z,101464.18
2023-01-22T09:45:10.613Z,101460.02
2023-01-22T09:47:46.926Z,101458.59
2023-01-22T09:50:20.647Z,101458.80
2023-01-22T09:52:49.473Z,101457.77
2023-01-22T09:55:18.673Z,101459.87
2023-01-22T09:57:47.570Z,101457.45
2023-01-22T10:00:26.798Z,101453.26
2023-01-22T10:03:00.199Z,101452.38
2023-01-22T10:05:37.481Z,101447.80
2023-01-22T10:08:16.304Z,101445.41
2023-01-22T18:08:20.242Z,101539.54
2023-01-22T18:10:47.190Z,101538.13
2023-01-22T18:13:14.343Z,101543.93
2023-01-22T18:15:46.016Z,101541.34
2023-01-22T18:18:13.672Z,101543.23
2023-01-22T18:20:46.655Z,101544.59
2023-01-22T18:23:14.016Z,101547.02
2023-01-22T18:25:49.735Z,101548.90
2023-01-22T18:28:17.218Z,101549.19
2023-01-22T18:30:45.107Z,101549.14
2023-01-22T18:33:14.266Z,101546.33
2023-01-22T18:35:42.481Z,101548.11
2023-01-22T18:38:09.232Z,101546.40
2023-01-22T18:40:39.036Z,101544.45
2023-01-22T18:43:05.952Z,101548.84
2023-01-22T18:45:36.529Z,101550.92
2023-01-22T18:48:04.144Z,101547.40
2023-01-22T18:50:31.187Z,101546.85
2023-01-22T18:53:00.205Z,101544.35
2023-01-22T18:55:28.967Z,101550.30
2023-01-22T18:57:56.351Z,101552.96
2023-01-22T19:00:23.549Z,101554.06
2023-01-22T19:02:54.729Z,101554.08
2023-01-22T19:05:22.804Z,101552.86
2023-01-22T19:07:49.826Z,101554.10
2023-01-22T19:10:17.259Z,101549.04
2023-01-22T19:12:44.593Z,101549.58
2023-01-22T19:15:11.862Z,101546.59
2023-01-22T19:17:39.161Z,101546.74
2023-01-22T19:20:07.974Z,101549.23
2023-01-22T19:22:35.076Z,101543.65
2023-01-22T19:25:02.367Z,101544.73
2023-01-22T19:27:29.629Z,101541.52
2023-01-22T19:29:56.574Z,101539.55
2023-01-22T19:32:28.129Z,101542.13
2023-01-22T19:34:55.311Z,101536.30
2023-01-22T19:37:23.799Z,101541.73
2023-01-22T19:39:51.030Z,101538.58
2023-01-22T19:42:18.901Z,101539.84
2023-01-22T19:44:47.999Z,101539.19
2023-01-22T19:47:14.835Z,101538.69
2023-01-22T19:49:41.752Z,101537.98
2023-01-22T19:52:10.133Z,101537.95
2023-01-22T19:54:42.314Z,101537.60
2023-01-22T19:57:10.651Z,101536.60
2023-01-22T19:59:41.877Z,101534.50
2023-01-22T20:02:13.432Z,101534.57
2023-01-22T20:04:40.641Z,101537.24
2023-01-22T20:07:11.121Z,101536.34
2023-01-22T20:09:38.481Z,101539.33
2023-01-22T20:12:06.265Z,101540.39
2023-01-22T20:14:38.388Z,101539.14
2023-01-22T20:17:05.423Z,101536.48
2023-01-22T20:19:32.881Z,101536.99
2023-01-22T20:22:02.344Z,101534.02
2023-01-22T20:24:29.599Z,101534.91
2023-01-22T20:26:58.185Z,101533.99
2023-01-22T20:29:25.145Z,101533.08
2023-01-22T20:31:52.545Z,101533.61
2023-01-22T20:34:19.650Z,101534.00
2023-01-22T20:36:46.823Z,101535.24
2023-01-22T20:39:15.600Z,101538.65
2023-01-22T20:41:43.372Z,101542.36
2023-01-22T20:44:11.544Z,101540.40
2023-01-22T20:46:40.749Z,101536.54
2023-01-22T20:49:10.666Z,101540.20
2023-01-22T20:51:38.236Z,101534.26
2023-01-22T20:54:05.104Z,101532.67
2023-01-22T20:56:33.363Z,101533.55
2023-01-22T20:59:05.967Z,101530.76
2023-01-22T21:01:33.203Z,101531.94
2023-01-22T21:04:03.879Z,101532.07
2023-01-22T21:06:32.923Z,101535.23
2023-01-22T21:09:00.663Z,101534.90
2023-01-22T21:11:29.494Z,101536.30
2023-01-22T21:13:57.232Z,101537.42
2023-01-22T21:16:31.736Z,101533.63
2023-01-22T21:19:03.138Z,101530.35
2023-01-22T21:21:31.622Z,101525.92
2023-01-22T21:23:58.466Z,101524.15
2023-01-22T21:26:27.675Z,101525.90
2023-01-22T21:29:00.214Z,101526.22
2023-01-22T21:31:27.586Z,101526.69
2023-01-22T21:34:01.935Z,101529.48
2023-01-22T21:36:50.254Z,101529.67
2023-01-22T21:39:18.972Z,101527.92
2023-01-22T21:41:45.807Z,101529.52
2023-01-22T21:44:33.941Z,101522.85
2023-01-22T21:47:00.894Z,101520.95
2023-01-22T21:49:27.838Z,101518.34
2023-01-22T21:51:56.681Z,101518.02
2023-01-22T21:54:26.956Z,101516.60
2023-01-22T21:56:54.751Z,101518.88
2023-01-22T21:59:21.473Z,101519.07
2023-01-22T22:01:49.858Z,101521.34
2023-01-22T22:04:17.422Z,101522.05
2023-01-22T22:06:44.370Z,101524.14
2023-01-22T22:09:19.197Z,101527.67
2023-01-22T22:11:46.013Z,101529.38
2023-01-22T22:14:17.103Z,101527.27
